Sea Isle City, New Jersey
Current Conditions -  °F | °C
As of 3:55 AM on Thursday 23 Oct 2014 (Local Time) from KWWD Reporting Station
Overcast Overcast  
Wind Chill: 52°   Ceiling: 1100
Heat Index: 52°   Visibility: 7mi
Dew Point: 46°   Wind: 13mph
Humidity: 82%   Direction: 320°NW
Pressure: 29.73"   Gusts: 22mph
Location:  39.15°N, 74.69°W
Report Text: KWWD 230755Z AUTO 32011G19KT 280V350 7SM BKN011 OVC017 11/08 A2973 RMK AO1
Loading
Personal Weather Stations






























Interactive Weather Map
Tropical Storm Tracking
New forecast layout! Learn more

10-Day Weather Forecast

Advertisements
Track Severe Weather on mobile